sensor_id;sensor_type;location;lat;lon;timestamp;P1;durP1;ratioP1;P2;durP2;ratioP2
13741;SDS011;8461;52.356;10.704;2023-01-29T00:00:06;12.43;;;8.67;;
13741;SDS011;8461;52.356;10.704;2023-01-29T00:02:34;13.27;;;8.03;;
13741;SDS011;8461;52.356;10.704;2023-01-29T00:05:03;13.73;;;8.40;;
13741;SDS011;8461;52.356;10.704;2023-01-29T00:07:30;12.77;;;8.67;;
13741;SDS011;8461;52.356;10.704;2023-01-29T00:09:56;12.87;;;8.37;;
13741;SDS011;8461;52.356;10.704;2023-01-29T00:12:21;9.60;;;7.27;;
13741;SDS011;8461;52.356;10.704;2023-01-29T00:14:47;12.57;;;8.30;;
13741;SDS011;8461;52.356;10.704;2023-01-29T00:17:12;11.60;;;8.13;;
13741;SDS011;8461;52.356;10.704;2023-01-29T00:19:38;15.10;;;8.80;;
13741;SDS011;8461;52.356;10.704;2023-01-29T00:22:03;11.57;;;8.20;;
13741;SDS011;8461;52.356;10.704;2023-01-29T00:24:29;13.10;;;7.97;;
13741;SDS011;8461;52.356;10.704;2023-01-29T00:26:55;11.53;;;8.03;;
13741;SDS011;8461;52.356;10.704;2023-01-29T00:29:20;12.20;;;8.43;;
13741;SDS011;8461;52.356;10.704;2023-01-29T00:31:46;11.93;;;8.60;;
13741;SDS011;8461;52.356;10.704;2023-01-29T00:34:11;11.27;;;8.37;;
13741;SDS011;8461;52.356;10.704;2023-01-29T00:36:37;13.30;;;8.57;;
13741;SDS011;8461;52.356;10.704;2023-01-29T00:39:03;11.87;;;7.90;;
13741;SDS011;8461;52.356;10.704;2023-01-29T00:41:34;15.63;;;8.43;;
13741;SDS011;8461;52.356;10.704;2023-01-29T00:44:19;13.17;;;7.67;;
13741;SDS011;8461;52.356;10.704;2023-01-29T00:47:03;12.33;;;8.20;;
13741;SDS011;8461;52.356;10.704;2023-01-29T00:49:49;13.60;;;8.70;;
13741;SDS011;8461;52.356;10.704;2023-01-29T00:52:15;9.47;;;7.93;;
13741;SDS011;8461;52.356;10.704;2023-01-29T00:54:50;12.47;;;8.47;;
13741;SDS011;8461;52.356;10.704;2023-01-29T00:57:24;12.73;;;8.67;;
13741;SDS011;8461;52.356;10.704;2023-01-29T00:59:51;12.27;;;8.03;;
13741;SDS011;8461;52.356;10.704;2023-01-29T01:02:17;12.30;;;8.13;;
13741;SDS011;8461;52.356;10.704;2023-01-29T01:05:01;11.03;;;7.87;;
13741;SDS011;8461;52.356;10.704;2023-01-29T01:07:30;12.43;;;8.40;;
13741;SDS011;8461;52.356;10.704;2023-01-29T01:09:55;12.33;;;8.30;;
13741;SDS011;8461;52.356;10.704;2023-01-29T01:12:39;11.60;;;8.03;;
13741;SDS011;8461;52.356;10.704;2023-01-29T01:15:05;13.97;;;8.63;;
13741;SDS011;8461;52.356;10.704;2023-01-29T01:17:31;13.10;;;8.60;;
13741;SDS011;8461;52.356;10.704;2023-01-29T01:19:56;9.30;;;6.10;;
13741;SDS011;8461;52.356;10.704;2023-01-29T01:22:22;13.47;;;8.60;;
13741;SDS011;8461;52.356;10.704;2023-01-29T01:24:47;14.43;;;8.37;;
13741;SDS011;8461;52.356;10.704;2023-01-29T01:27:13;14.27;;;8.30;;
13741;SDS011;8461;52.356;10.704;2023-01-29T01:29:39;12.13;;;8.00;;
13741;SDS011;8461;52.356;10.704;2023-01-29T01:32:05;13.97;;;8.83;;
13741;SDS011;8461;52.356;10.704;2023-01-29T01:34:30;12.07;;;7.83;;
13741;SDS011;8461;52.356;10.704;2023-01-29T01:36:56;10.67;;;7.70;;
13741;SDS011;8461;52.356;10.704;2023-01-29T01:39:22;13.30;;;8.47;;
13741;SDS011;8461;52.356;10.704;2023-01-29T01:41:49;11.37;;;7.87;;
13741;SDS011;8461;52.356;10.704;2023-01-29T01:47:18;11.47;;;7.73;;
13741;SDS011;8461;52.356;10.704;2023-01-29T01:49:48;9.77;;;7.80;;
13741;SDS011;8461;52.356;10.704;2023-01-29T01:52:14;14.43;;;8.47;;
13741;SDS011;8461;52.356;10.704;2023-01-29T01:54:41;12.13;;;8.80;;
13741;SDS011;8461;52.356;10.704;2023-01-29T01:57:12;13.30;;;8.93;;
13741;SDS011;8461;52.356;10.704;2023-01-29T01:59:45;11.73;;;8.20;;
13741;SDS011;8461;52.356;10.704;2023-01-29T02:02:16;10.87;;;7.60;;
13741;SDS011;8461;52.356;10.704;2023-01-29T02:05:00;11.87;;;7.93;;
13741;SDS011;8461;52.356;10.704;2023-01-29T02:07:45;11.60;;;7.67;;
13741;SDS011;8461;52.356;10.704;2023-01-29T02:10:34;12.20;;;7.47;;
13741;SDS011;8461;52.356;10.704;2023-01-29T02:13:06;15.63;;;8.97;;
13741;SDS011;8461;52.356;10.704;2023-01-29T02:15:32;14.53;;;8.50;;
13741;SDS011;8461;52.356;10.704;2023-01-29T02:17:58;11.57;;;8.00;;
13741;SDS011;8461;52.356;10.704;2023-01-29T02:20:25;12.60;;;8.13;;
13741;SDS011;8461;52.356;10.704;2023-01-29T02:28:53;10.00;;;7.23;;
13741;SDS011;8461;52.356;10.704;2023-01-29T02:33:55;14.43;;;8.60;;
13741;SDS011;8461;52.356;10.704;2023-01-29T02:36:40;10.13;;;7.83;;
13741;SDS011;8461;52.356;10.704;2023-01-29T02:48:02;11.53;;;7.70;;
13741;SDS011;8461;52.356;10.704;2023-01-29T02:50:40;13.70;;;8.27;;
13741;SDS011;8461;52.356;10.704;2023-01-29T02:58:10;14.20;;;8.37;;
13741;SDS011;8461;52.356;10.704;2023-01-29T03:00:42;12.97;;;8.50;;
13741;SDS011;8461;52.356;10.704;2023-01-29T03:03:17;11.70;;;7.57;;
13741;SDS011;8461;52.356;10.704;2023-01-29T03:05:51;14.20;;;8.07;;
13741;SDS011;8461;52.356;10.704;2023-01-29T03:08:36;11.97;;;8.30;;
13741;SDS011;8461;52.356;10.704;2023-01-29T03:11:10;14.00;;;8.60;;
13741;SDS011;8461;52.356;10.704;2023-01-29T03:13:44;13.37;;;9.00;;
13741;SDS011;8461;52.356;10.704;2023-01-29T03:16:25;13.87;;;9.13;;
13741;SDS011;8461;52.356;10.704;2023-01-29T03:19:02;11.97;;;8.63;;
13741;SDS011;8461;52.356;10.704;2023-01-29T03:21:37;13.60;;;8.37;;
13741;SDS011;8461;52.356;10.704;2023-01-29T03:24:17;14.57;;;8.00;;
13741;SDS011;8461;52.356;10.704;2023-01-29T03:27:08;11.80;;;8.40;;
13741;SDS011;8461;52.356;10.704;2023-01-29T03:29:54;12.60;;;8.40;;
13741;SDS011;8461;52.356;10.704;2023-01-29T03:32:41;13.73;;;8.77;;
13741;SDS011;8461;52.356;10.704;2023-01-29T03:35:08;12.30;;;8.47;;
13741;SDS011;8461;52.356;10.704;2023-01-29T03:37:44;14.00;;;8.60;;
13741;SDS011;8461;52.356;10.704;2023-01-29T03:40:11;10.93;;;8.37;;
13741;SDS011;8461;52.356;10.704;2023-01-29T03:45:13;14.23;;;10.07;;
13741;SDS011;8461;52.356;10.704;2023-01-29T03:50:33;16.83;;;10.20;;
13741;SDS011;8461;52.356;10.704;2023-01-29T03:58:56;14.10;;;8.87;;
13741;SDS011;8461;52.356;10.704;2023-01-29T04:01:39;14.47;;;9.93;;
13741;SDS011;8461;52.356;10.704;2023-01-29T04:04:16;18.03;;;10.40;;
13741;SDS011;8461;52.356;10.704;2023-01-29T04:06:46;14.10;;;8.27;;
13741;SDS011;8461;52.356;10.704;2023-01-29T04:09:24;14.73;;;8.33;;
13741;SDS011;8461;52.356;10.704;2023-01-29T04:11:56;15.60;;;8.87;;
13741;SDS011;8461;52.356;10.704;2023-01-29T04:14:33;17.03;;;9.67;;
13741;SDS011;8461;52.356;10.704;2023-01-29T04:16:59;16.73;;;10.57;;
13741;SDS011;8461;52.356;10.704;2023-01-29T04:19:27;19.30;;;11.53;;
13741;SDS011;8461;52.356;10.704;2023-01-29T04:21:57;17.43;;;10.03;;
13741;SDS011;8461;52.356;10.704;2023-01-29T04:24:36;15.27;;;9.37;;
13741;SDS011;8461;52.356;10.704;2023-01-29T04:29:39;17.13;;;9.37;;
13741;SDS011;8461;52.356;10.704;2023-01-29T04:32:16;15.10;;;10.03;;
13741;SDS011;8461;52.356;10.704;2023-01-29T04:34:58;15.83;;;10.60;;
13741;SDS011;8461;52.356;10.704;2023-01-29T04:37:32;14.33;;;9.53;;
13741;SDS011;8461;52.356;10.704;2023-01-29T04:42:48;15.77;;;10.10;;
13741;SDS011;8461;52.356;10.704;2023-01-29T04:45:44;16.47;;;9.37;;
13741;SDS011;8461;52.356;10.704;2023-01-29T04:51:04;14.13;;;8.83;;
13741;SDS011;8461;52.356;10.704;2023-01-29T04:53:56;18.13;;;10.80;;
13741;SDS011;8461;52.356;10.704;2023-01-29T04:56:33;15.47;;;9.63;;
13741;SDS011;8461;52.356;10.704;2023-01-29T04:59:06;17.97;;;9.47;;
13741;SDS011;8461;52.356;10.704;2023-01-29T05:01:37;14.93;;;9.30;;
13741;SDS011;8461;52.356;10.704;2023-01-29T05:04:07;19.80;;;9.50;;
13741;SDS011;8461;52.356;10.704;2023-01-29T05:06:37;12.43;;;8.17;;
13741;SDS011;8461;52.356;10.704;2023-01-29T05:09:04;15.27;;;9.47;;
13741;SDS011;8461;52.356;10.704;2023-01-29T05:11:31;16.13;;;10.07;;
13741;SDS011;8461;52.356;10.704;2023-01-29T05:13:59;17.43;;;10.43;;
13741;SDS011;8461;52.356;10.704;2023-01-29T05:16:29;13.53;;;8.87;;
13741;SDS011;8461;52.356;10.704;2023-01-29T05:19:06;13.27;;;9.20;;
13741;SDS011;8461;52.356;10.704;2023-01-29T05:21:36;18.20;;;9.90;;
13741;SDS011;8461;52.356;10.704;2023-01-29T05:24:07;16.57;;;10.07;;
13741;SDS011;8461;52.356;10.704;2023-01-29T05:26:37;16.97;;;10.17;;
13741;SDS011;8461;52.356;10.704;2023-01-29T05:29:22;14.17;;;9.53;;
13741;SDS011;8461;52.356;10.704;2023-01-29T05:31:47;14.90;;;10.07;;
13741;SDS011;8461;52.356;10.704;2023-01-29T05:34:13;17.90;;;9.63;;
13741;SDS011;8461;52.356;10.704;2023-01-29T05:36:38;16.90;;;10.37;;
13741;SDS011;8461;52.356;10.704;2023-01-29T05:39:04;15.03;;;10.17;;
13741;SDS011;8461;52.356;10.704;2023-01-29T05:41:29;18.37;;;10.33;;
13741;SDS011;8461;52.356;10.704;2023-01-29T05:43:55;11.63;;;8.27;;
13741;SDS011;8461;52.356;10.704;2023-01-29T05:46:21;12.13;;;8.27;;
13741;SDS011;8461;52.356;10.704;2023-01-29T05:48:46;17.77;;;9.93;;
13741;SDS011;8461;52.356;10.704;2023-01-29T05:51:12;15.33;;;9.00;;
13741;SDS011;8461;52.356;10.704;2023-01-29T05:53:37;15.03;;;9.57;;
13741;SDS011;8461;52.356;10.704;2023-01-29T05:56:03;16.87;;;9.67;;
13741;SDS011;8461;52.356;10.704;2023-01-29T05:58:30;14.27;;;9.57;;
13741;SDS011;8461;52.356;10.704;2023-01-29T06:00:56;15.33;;;10.70;;
13741;SDS011;8461;52.356;10.704;2023-01-29T06:03:21;17.33;;;10.67;;
13741;SDS011;8461;52.356;10.704;2023-01-29T06:05:47;16.63;;;11.00;;
13741;SDS011;8461;52.356;10.704;2023-01-29T06:08:12;16.47;;;9.33;;
13741;SDS011;8461;52.356;10.704;2023-01-29T06:10:38;17.97;;;9.30;;
13741;SDS011;8461;52.356;10.704;2023-01-29T06:13:04;13.67;;;8.97;;
13741;SDS011;8461;52.356;10.704;2023-01-29T06:15:29;14.43;;;9.63;;
13741;SDS011;8461;52.356;10.704;2023-01-29T06:17:55;16.70;;;9.67;;
13741;SDS011;8461;52.356;10.704;2023-01-29T06:20:22;15.53;;;9.70;;
13741;SDS011;8461;52.356;10.704;2023-01-29T06:22:48;14.63;;;9.47;;
13741;SDS011;8461;52.356;10.704;2023-01-29T06:25:14;16.33;;;10.60;;
13741;SDS011;8461;52.356;10.704;2023-01-29T06:27:39;14.47;;;9.43;;
13741;SDS011;8461;52.356;10.704;2023-01-29T06:30:05;15.17;;;9.63;;
13741;SDS011;8461;52.356;10.704;2023-01-29T06:32:32;13.73;;;9.07;;
13741;SDS011;8461;52.356;10.704;2023-01-29T06:34:58;16.00;;;10.37;;
13741;SDS011;8461;52.356;10.704;2023-01-29T06:37:23;17.50;;;10.37;;
13741;SDS011;8461;52.356;10.704;2023-01-29T06:39:49;18.23;;;10.50;;
13741;SDS011;8461;52.356;10.704;2023-01-29T06:42:15;15.63;;;10.53;;
13741;SDS011;8461;52.356;10.704;2023-01-29T06:44:40;15.90;;;10.57;;
13741;SDS011;8461;52.356;10.704;2023-01-29T06:47:06;20.17;;;10.93;;
13741;SDS011;8461;52.356;10.704;2023-01-29T06:49:31;19.70;;;10.70;;
13741;SDS011;8461;52.356;10.704;2023-01-29T06:51:57;18.13;;;10.77;;
13741;SDS011;8461;52.356;10.704;2023-01-29T06:54:22;19.50;;;11.40;;
13741;SDS011;8461;52.356;10.704;2023-01-29T06:56:48;22.13;;;11.10;;
13741;SDS011;8461;52.356;10.704;2023-01-29T06:59:14;23.00;;;11.80;;
13741;SDS011;8461;52.356;10.704;2023-01-29T07:01:40;17.47;;;11.67;;
13741;SDS011;8461;52.356;10.704;2023-01-29T07:04:07;19.80;;;12.20;;
13741;SDS011;8461;52.356;10.704;2023-01-29T07:06:33;18.77;;;11.20;;
13741;SDS011;8461;52.356;10.704;2023-01-29T07:08:59;21.97;;;11.47;;
13741;SDS011;8461;52.356;10.704;2023-01-29T07:11:24;18.57;;;10.73;;
13741;SDS011;8461;52.356;10.704;2023-01-29T07:13:50;19.20;;;11.30;;
13741;SDS011;8461;52.356;10.704;2023-01-29T07:16:15;16.90;;;7.87;;
13741;SDS011;8461;52.356;10.704;2023-01-29T07:18:43;21.27;;;12.73;;
13741;SDS011;8461;52.356;10.704;2023-01-29T07:21:08;22.37;;;12.93;;
13741;SDS011;8461;52.356;10.704;2023-01-29T07:23:34;20.80;;;11.97;;
13741;SDS011;8461;52.356;10.704;2023-01-29T07:26:00;19.80;;;10.83;;
13741;SDS011;8461;52.356;10.704;2023-01-29T07:28:27;19.73;;;11.67;;
13741;SDS011;8461;52.356;10.704;2023-01-29T07:30:56;23.73;;;13.10;;
13741;SDS011;8461;52.356;10.704;2023-01-29T07:33:22;18.77;;;11.63;;
13741;SDS011;8461;52.356;10.704;2023-01-29T07:35:48;20.70;;;11.43;;
13741;SDS011;8461;52.356;10.704;2023-01-29T07:38:13;24.03;;;12.57;;
13741;SDS011;8461;52.356;10.704;2023-01-29T07:40:39;16.60;;;11.33;;
13741;SDS011;8461;52.356;10.704;2023-01-29T07:43:05;18.53;;;10.07;;
13741;SDS011;8461;52.356;10.704;2023-01-29T07:45:33;19.97;;;11.87;;
13741;SDS011;8461;52.356;10.704;2023-01-29T07:47:59;22.40;;;11.87;;
13741;SDS011;8461;52.356;10.704;2023-01-29T07:50:25;20.00;;;12.13;;
13741;SDS011;8461;52.356;10.704;2023-01-29T07:52:54;22.80;;;12.37;;
13741;SDS011;8461;52.356;10.704;2023-01-29T07:55:20;22.53;;;12.00;;
13741;SDS011;8461;52.356;10.704;2023-01-29T07:57:45;21.33;;;12.17;;
13741;SDS011;8461;52.356;10.704;2023-01-29T08:00:11;20.87;;;12.20;;
13741;SDS011;8461;52.356;10.704;2023-01-29T08:02:38;20.10;;;10.83;;
13741;SDS011;8461;52.356;10.704;2023-01-29T08:05:04;20.13;;;10.27;;
13741;SDS011;8461;52.356;10.704;2023-01-29T08:07:30;21.47;;;12.73;;
13741;SDS011;8461;52.356;10.704;2023-01-29T08:09:56;19.13;;;10.37;;
13741;SDS011;8461;52.356;10.704;2023-01-29T08:12:21;19.97;;;11.10;;
13741;SDS011;8461;52.356;10.704;2023-01-29T08:14:47;20.90;;;10.50;;
13741;SDS011;8461;52.356;10.704;2023-01-29T08:17:12;17.07;;;9.27;;
13741;SDS011;8461;52.356;10.704;2023-01-29T08:19:38;16.17;;;8.87;;
13741;SDS011;8461;52.356;10.704;2023-01-29T08:22:04;23.33;;;12.93;;
13741;SDS011;8461;52.356;10.704;2023-01-29T08:24:31;15.20;;;9.87;;
13741;SDS011;8461;52.356;10.704;2023-01-29T08:26:57;22.80;;;12.73;;
13741;SDS011;8461;52.356;10.704;2023-01-29T08:29:22;13.07;;;7.80;;
13741;SDS011;8461;52.356;10.704;2023-01-29T08:31:48;22.63;;;13.03;;
13741;SDS011;8461;52.356;10.704;2023-01-29T08:34:13;14.97;;;8.63;;
13741;SDS011;8461;52.356;10.704;2023-01-29T08:36:39;22.63;;;13.97;;
13741;SDS011;8461;52.356;10.704;2023-01-29T08:39:05;16.93;;;7.90;;
13741;SDS011;8461;52.356;10.704;2023-01-29T08:41:30;27.13;;;12.63;;
13741;SDS011;8461;52.356;10.704;2023-01-29T08:43:56;21.03;;;12.73;;
13741;SDS011;8461;52.356;10.704;2023-01-29T08:46:24;22.33;;;12.43;;
13741;SDS011;8461;52.356;10.704;2023-01-29T08:48:49;20.97;;;12.63;;
13741;SDS011;8461;52.356;10.704;2023-01-29T08:51:15;25.00;;;11.87;;
13741;SDS011;8461;52.356;10.704;2023-01-29T08:53:40;27.70;;;15.30;;
13741;SDS011;8461;52.356;10.704;2023-01-29T08:56:06;23.77;;;11.87;;
13741;SDS011;8461;52.356;10.704;2023-01-29T08:58:32;28.47;;;14.90;;
13741;SDS011;8461;52.356;10.704;2023-01-29T09:01:04;19.03;;;9.83;;
13741;SDS011;8461;52.356;10.704;2023-01-29T09:03:31;21.77;;;12.23;;
13741;SDS011;8461;52.356;10.704;2023-01-29T09:05:56;18.80;;;10.23;;
13741;SDS011;8461;52.356;10.704;2023-01-29T09:08:22;22.97;;;13.43;;
13741;SDS011;8461;52.356;10.704;2023-01-29T09:10:47;18.27;;;10.03;;
13741;SDS011;8461;52.356;10.704;2023-01-29T09:13:13;27.53;;;10.83;;
13741;SDS011;8461;52.356;10.704;2023-01-29T09:15:38;19.67;;;10.53;;
13741;SDS011;8461;52.356;10.704;2023-01-29T09:18:04;26.50;;;13.87;;
13741;SDS011;8461;52.356;10.704;2023-01-29T09:20:30;19.83;;;9.43;;
13741;SDS011;8461;52.356;10.704;2023-01-29T09:22:56;26.77;;;11.13;;
13741;SDS011;8461;52.356;10.704;2023-01-29T09:25:23;18.13;;;10.33;;
13741;SDS011;8461;52.356;10.704;2023-01-29T09:27:48;23.33;;;11.93;;
13741;SDS011;8461;52.356;10.704;2023-01-29T09:30:14;21.03;;;12.07;;
13741;SDS011;8461;52.356;10.704;2023-01-29T09:32:40;23.80;;;12.47;;
13741;SDS011;8461;52.356;10.704;2023-01-29T09:35:05;24.53;;;11.23;;
13741;SDS011;8461;52.356;10.704;2023-01-29T09:37:31;24.67;;;10.63;;
13741;SDS011;8461;52.356;10.704;2023-01-29T09:39:57;25.97;;;11.67;;
13741;SDS011;8461;52.356;10.704;2023-01-29T09:42:27;24.37;;;11.60;;
13741;SDS011;8461;52.356;10.704;2023-01-29T09:45:17;16.77;;;8.00;;
13741;SDS011;8461;52.356;10.704;2023-01-29T09:47:51;26.93;;;14.17;;
13741;SDS011;8461;52.356;10.704;2023-01-29T09:50:24;25.57;;;14.10;;
13741;SDS011;8461;52.356;10.704;2023-01-29T09:55:45;23.17;;;12.73;;
13741;SDS011;8461;52.356;10.704;2023-01-29T09:58:24;22.73;;;12.83;;
13741;SDS011;8461;52.356;10.704;2023-01-29T10:01:01;21.80;;;11.47;;
13741;SDS011;8461;52.356;10.704;2023-01-29T10:06:54;21.83;;;11.40;;
13741;SDS011;8461;52.356;10.704;2023-01-29T10:15:12;28.27;;;13.33;;
13741;SDS011;8461;52.356;10.704;2023-01-29T10:20:42;18.20;;;8.83;;
13741;SDS011;8461;52.356;10.704;2023-01-29T10:23:25;30.50;;;15.37;;
13741;SDS011;8461;52.356;10.704;2023-01-29T10:25:54;27.57;;;14.27;;
13741;SDS011;8461;52.356;10.704;2023-01-29T10:28:42;27.57;;;14.00;;
13741;SDS011;8461;52.356;10.704;2023-01-29T10:31:11;27.30;;;15.70;;
13741;SDS011;8461;52.356;10.704;2023-01-29T10:33:44;27.63;;;15.50;;
13741;SDS011;8461;52.356;10.704;2023-01-29T10:36:18;30.77;;;16.13;;
13741;SDS011;8461;52.356;10.704;2023-01-29T10:38:48;22.77;;;12.73;;
13741;SDS011;8461;52.356;10.704;2023-01-29T10:46:38;26.37;;;14.83;;
13741;SDS011;8461;52.356;10.704;2023-01-29T10:52:38;22.77;;;12.20;;
13741;SDS011;8461;52.356;10.704;2023-01-29T10:55:32;25.97;;;13.40;;
13741;SDS011;8461;52.356;10.704;2023-01-29T11:00:45;22.37;;;11.77;;
13741;SDS011;8461;52.356;10.704;2023-01-29T11:03:14;22.37;;;12.73;;
13741;SDS011;8461;52.356;10.704;2023-01-29T11:08:42;29.33;;;14.47;;
13741;SDS011;8461;52.356;10.704;2023-01-29T11:11:17;24.23;;;12.43;;
13741;SDS011;8461;52.356;10.704;2023-01-29T11:13:56;25.77;;;13.13;;
13741;SDS011;8461;52.356;10.704;2023-01-29T11:16:31;24.30;;;11.67;;
13741;SDS011;8461;52.356;10.704;2023-01-29T11:19:04;17.80;;;11.07;;
13741;SDS011;8461;52.356;10.704;2023-01-29T11:21:30;27.33;;;10.87;;
13741;SDS011;8461;52.356;10.704;2023-01-29T11:26:32;18.57;;;10.17;;
13741;SDS011;8461;52.356;10.704;2023-01-29T11:29:01;14.53;;;7.57;;
13741;SDS011;8461;52.356;10.704;2023-01-29T11:31:28;16.17;;;7.97;;
13741;SDS011;8461;52.356;10.704;2023-01-29T11:34:01;17.87;;;8.80;;
13741;SDS011;8461;52.356;10.704;2023-01-29T11:36:34;23.00;;;8.77;;
13741;SDS011;8461;52.356;10.704;2023-01-29T11:39:18;15.80;;;6.17;;
13741;SDS011;8461;52.356;10.704;2023-01-29T11:41:52;22.93;;;10.87;;
13741;SDS011;8461;52.356;10.704;2023-01-29T11:44:21;12.17;;;7.27;;
13741;SDS011;8461;52.356;10.704;2023-01-29T11:46:52;16.00;;;7.70;;
13741;SDS011;8461;52.356;10.704;2023-01-29T11:49:24;22.17;;;9.53;;
13741;SDS011;8461;52.356;10.704;2023-01-29T11:52:00;10.43;;;6.00;;
13741;SDS011;8461;52.356;10.704;2023-01-29T11:54:29;18.47;;;8.27;;
13741;SDS011;8461;52.356;10.704;2023-01-29T11:57:00;20.80;;;8.57;;
13741;SDS011;8461;52.356;10.704;2023-01-29T11:59:42;18.70;;;8.97;;
13741;SDS011;8461;52.356;10.704;2023-01-29T12:02:19;17.17;;;9.30;;
13741;SDS011;8461;52.356;10.704;2023-01-29T12:04:45;18.63;;;7.80;;
13741;SDS011;8461;52.356;10.704;2023-01-29T12:07:12;21.17;;;9.23;;
13741;SDS011;8461;52.356;10.704;2023-01-29T12:09:44;15.00;;;8.60;;
13741;SDS011;8461;52.356;10.704;2023-01-29T12:12:56;15.63;;;7.60;;
13741;SDS011;8461;52.356;10.704;2023-01-29T12:15:21;17.10;;;8.77;;
13741;SDS011;8461;52.356;10.704;2023-01-29T12:17:52;17.50;;;8.63;;
13741;SDS011;8461;52.356;10.704;2023-01-29T12:20:27;25.10;;;9.40;;
13741;SDS011;8461;52.356;10.704;2023-01-29T12:23:00;14.03;;;7.97;;
13741;SDS011;8461;52.356;10.704;2023-01-29T12:28:07;13.37;;;6.10;;
13741;SDS011;8461;52.356;10.704;2023-01-29T12:31:07;17.80;;;8.07;;
13741;SDS011;8461;52.356;10.704;2023-01-29T12:36:45;21.67;;;8.97;;
13741;SDS011;8461;52.356;10.704;2023-01-29T12:39:17;15.83;;;8.37;;
13741;SDS011;8461;52.356;10.704;2023-01-29T12:41:57;19.30;;;9.97;;
13741;SDS011;8461;52.356;10.704;2023-01-29T12:44:41;12.10;;;6.93;;
13741;SDS011;8461;52.356;10.704;2023-01-29T12:47:15;20.10;;;9.33;;
13741;SDS011;8461;52.356;10.704;2023-01-29T12:49:46;17.33;;;7.93;;
13741;SDS011;8461;52.356;10.704;2023-01-29T12:52:25;16.57;;;8.50;;
13741;SDS011;8461;52.356;10.704;2023-01-29T12:55:00;20.13;;;9.47;;
13741;SDS011;8461;52.356;10.704;2023-01-29T12:57:33;16.83;;;8.17;;
13741;SDS011;8461;52.356;10.704;2023-01-29T13:00:14;20.43;;;9.80;;
13741;SDS011;8461;52.356;10.704;2023-01-29T13:02:47;18.70;;;8.83;;
13741;SDS011;8461;52.356;10.704;2023-01-29T13:07:50;19.17;;;9.13;;
13741;SDS011;8461;52.356;10.704;2023-01-29T13:10:40;17.20;;;8.80;;
13741;SDS011;8461;52.356;10.704;2023-01-29T13:15:56;16.63;;;7.80;;
13741;SDS011;8461;52.356;10.704;2023-01-29T13:18:41;17.10;;;7.33;;
13741;SDS011;8461;52.356;10.704;2023-01-29T13:21:12;14.23;;;7.50;;
13741;SDS011;8461;52.356;10.704;2023-01-29T13:23:45;17.93;;;9.03;;
13741;SDS011;8461;52.356;10.704;2023-01-29T13:26:17;16.33;;;8.37;;
13741;SDS011;8461;52.356;10.704;2023-01-29T13:28:44;12.73;;;6.90;;
13741;SDS011;8461;52.356;10.704;2023-01-29T13:31:20;16.30;;;8.23;;
13741;SDS011;8461;52.356;10.704;2023-01-29T13:34:10;15.13;;;7.20;;
13741;SDS011;8461;52.356;10.704;2023-01-29T13:36:48;19.03;;;7.60;;
13741;SDS011;8461;52.356;10.704;2023-01-29T13:39:27;15.33;;;7.23;;
13741;SDS011;8461;52.356;10.704;2023-01-29T13:41:58;16.40;;;8.10;;
13741;SDS011;8461;52.356;10.704;2023-01-29T13:44:25;14.07;;;6.67;;
13741;SDS011;8461;52.356;10.704;2023-01-29T13:46:56;12.77;;;4.93;;
13741;SDS011;8461;52.356;10.704;2023-01-29T13:49:37;11.90;;;6.03;;
13741;SDS011;8461;52.356;10.704;2023-01-29T13:52:13;17.90;;;7.93;;
13741;SDS011;8461;52.356;10.704;2023-01-29T13:54:57;13.70;;;7.33;;
13741;SDS011;8461;52.356;10.704;2023-01-29T14:00:46;15.00;;;6.10;;
13741;SDS011;8461;52.356;10.704;2023-01-29T14:07:57;11.90;;;6.33;;
13741;SDS011;8461;52.356;10.704;2023-01-29T14:10:24;12.43;;;5.83;;
13741;SDS011;8461;52.356;10.704;2023-01-29T14:12:52;14.07;;;7.33;;
13741;SDS011;8461;52.356;10.704;2023-01-29T14:15:20;11.10;;;6.50;;
13741;SDS011;8461;52.356;10.704;2023-01-29T14:20:39;12.63;;;6.67;;
13741;SDS011;8461;52.356;10.704;2023-01-29T14:23:22;12.77;;;7.53;;
13741;SDS011;8461;52.356;10.704;2023-01-29T14:25:48;12.67;;;6.90;;
13741;SDS011;8461;52.356;10.704;2023-01-29T14:28:15;14.67;;;7.40;;
13741;SDS011;8461;52.356;10.704;2023-01-29T14:30:46;12.87;;;6.87;;
13741;SDS011;8461;52.356;10.704;2023-01-29T14:35:53;13.23;;;6.60;;
13741;SDS011;8461;52.356;10.704;2023-01-29T14:38:22;17.13;;;7.33;;
13741;SDS011;8461;52.356;10.704;2023-01-29T14:40:49;10.50;;;5.90;;
13741;SDS011;8461;52.356;10.704;2023-01-29T14:43:24;15.97;;;7.13;;
13741;SDS011;8461;52.356;10.704;2023-01-29T14:45:50;12.97;;;6.00;;
13741;SDS011;8461;52.356;10.704;2023-01-29T14:48:19;13.13;;;6.87;;
13741;SDS011;8461;52.356;10.704;2023-01-29T14:51:07;12.10;;;6.13;;
13741;SDS011;8461;52.356;10.704;2023-01-29T14:56:26;9.70;;;5.80;;
13741;SDS011;8461;52.356;10.704;2023-01-29T14:59:18;10.87;;;6.60;;
13741;SDS011;8461;52.356;10.704;2023-01-29T15:01:50;15.10;;;4.77;;
13741;SDS011;8461;52.356;10.704;2023-01-29T15:04:20;11.17;;;6.10;;
13741;SDS011;8461;52.356;10.704;2023-01-29T15:12:24;13.33;;;6.97;;
13741;SDS011;8461;52.356;10.704;2023-01-29T15:17:53;7.83;;;3.93;;
13741;SDS011;8461;52.356;10.704;2023-01-29T15:20:37;10.60;;;5.90;;
13741;SDS011;8461;52.356;10.704;2023-01-29T15:23:19;11.27;;;5.93;;
13741;SDS011;8461;52.356;10.704;2023-01-29T15:25:52;7.60;;;4.77;;
13741;SDS011;8461;52.356;10.704;2023-01-29T15:28:21;9.47;;;5.23;;
13741;SDS011;8461;52.356;10.704;2023-01-29T15:30:52;8.27;;;5.13;;
13741;SDS011;8461;52.356;10.704;2023-01-29T15:33:21;9.97;;;4.37;;
13741;SDS011;8461;52.356;10.704;2023-01-29T15:35:47;8.77;;;5.03;;
13741;SDS011;8461;52.356;10.704;2023-01-29T15:38:14;8.20;;;5.03;;
13741;SDS011;8461;52.356;10.704;2023-01-29T15:41:18;12.63;;;6.67;;
13741;SDS011;8461;52.356;10.704;2023-01-29T15:43:41;9.23;;;5.20;;
13741;SDS011;8461;52.356;10.704;2023-01-29T15:46:11;7.23;;;4.20;;
13741;SDS011;8461;52.356;10.704;2023-01-29T15:48:48;10.20;;;5.60;;
13741;SDS011;8461;52.356;10.704;2023-01-29T15:51:15;11.00;;;6.37;;
13741;SDS011;8461;52.356;10.704;2023-01-29T15:53:54;12.83;;;6.10;;
13741;SDS011;8461;52.356;10.704;2023-01-29T15:56:27;15.23;;;9.40;;
13741;SDS011;8461;52.356;10.704;2023-01-29T15:58:56;17.90;;;11.57;;
13741;SDS011;8461;52.356;10.704;2023-01-29T16:01:27;13.43;;;8.23;;
13741;SDS011;8461;52.356;10.704;2023-01-29T16:03:53;10.77;;;7.77;;
13741;SDS011;8461;52.356;10.704;2023-01-29T16:06:21;15.03;;;8.87;;
13741;SDS011;8461;52.356;10.704;2023-01-29T16:08:51;12.23;;;8.13;;
13741;SDS011;8461;52.356;10.704;2023-01-29T16:11:18;9.67;;;6.67;;
13741;SDS011;8461;52.356;10.704;2023-01-29T16:13:45;9.97;;;7.20;;
13741;SDS011;8461;52.356;10.704;2023-01-29T16:18:39;14.67;;;7.57;;
13741;SDS011;8461;52.356;10.704;2023-01-29T16:21:31;13.97;;;8.63;;
13741;SDS011;8461;52.356;10.704;2023-01-29T16:24:00;11.43;;;7.43;;
13741;SDS011;8461;52.356;10.704;2023-01-29T16:26:32;14.93;;;9.60;;
13741;SDS011;8461;52.356;10.704;2023-01-29T16:29:03;13.03;;;8.57;;
13741;SDS011;8461;52.356;10.704;2023-01-29T16:31:30;9.10;;;5.47;;
13741;SDS011;8461;52.356;10.704;2023-01-29T16:33:57;13.50;;;8.17;;
13741;SDS011;8461;52.356;10.704;2023-01-29T16:36:24;14.23;;;8.57;;
13741;SDS011;8461;52.356;10.704;2023-01-29T16:38:58;15.07;;;9.10;;
13741;SDS011;8461;52.356;10.704;2023-01-29T16:41:32;13.67;;;9.53;;
13741;SDS011;8461;52.356;10.704;2023-01-29T16:46:44;10.80;;;6.77;;
13741;SDS011;8461;52.356;10.704;2023-01-29T16:51:49;11.97;;;7.17;;